Newman Grove, Nebraska
Current Conditions -  °F | °C
As of 1:35 AM on Wednesday 22 Oct 2014 (Local Time) from KBVN Reporting Station
Clear Clear  
Wind Chill: 13°   Ceiling: Unl
Heat Index: 13°   Visibility: 10mi
Dew Point:   Wind: 9mph
Humidity: 58%   Direction: 140°SE
Pressure: 29.99"   Gusts: NA
Location:  41.75°N, 97.78°W
Report Text: KBVN 220635Z AUTO 14008KT 10SM CLR 13/05 A2999 RMK AO2 T01330052
Loading
Personal Weather Stations






























Interactive Weather Map
Tropical Storm Tracking
New forecast layout! Learn more

10-Day Weather Forecast

Advertisements
Track Severe Weather on mobile